sensor_id;sensor_type;location;lat;lon;timestamp;P1;durP1;ratioP1;P2;durP2;ratioP2
68216;SDS011;55037;52.354;4.992;2022-11-13T00:01:25;26.60;;;14.38;;
68216;SDS011;55037;52.354;4.992;2022-11-13T00:04:10;25.65;;;14.93;;
68216;SDS011;55037;52.354;4.992;2022-11-13T00:06:56;22.07;;;14.10;;
68216;SDS011;55037;52.354;4.992;2022-11-13T00:09:43;27.27;;;14.25;;
68216;SDS011;55037;52.354;4.992;2022-11-13T00:12:30;25.40;;;14.02;;
68216;SDS011;55037;52.354;4.992;2022-11-13T00:15:15;21.58;;;13.50;;
68216;SDS011;55037;52.354;4.992;2022-11-13T00:18:02;22.40;;;12.82;;
68216;SDS011;55037;52.354;4.992;2022-11-13T00:20:48;23.90;;;12.73;;
68216;SDS011;55037;52.354;4.992;2022-11-13T00:23:34;22.25;;;13.25;;
68216;SDS011;55037;52.354;4.992;2022-11-13T00:26:25;22.63;;;13.63;;
68216;SDS011;55037;52.354;4.992;2022-11-13T00:29:12;21.45;;;13.70;;
68216;SDS011;55037;52.354;4.992;2022-11-13T00:31:58;21.38;;;13.63;;
68216;SDS011;55037;52.354;4.992;2022-11-13T00:34:44;24.13;;;12.80;;
68216;SDS011;55037;52.354;4.992;2022-11-13T00:37:32;22.25;;;12.95;;
68216;SDS011;55037;52.354;4.992;2022-11-13T00:40:18;24.17;;;13.57;;
68216;SDS011;55037;52.354;4.992;2022-11-13T00:43:04;24.27;;;13.20;;
68216;SDS011;55037;52.354;4.992;2022-11-13T00:45:50;22.88;;;13.15;;
68216;SDS011;55037;52.354;4.992;2022-11-13T00:48:36;23.52;;;13.52;;
68216;SDS011;55037;52.354;4.992;2022-11-13T00:51:22;21.52;;;13.70;;
68216;SDS011;55037;52.354;4.992;2022-11-13T00:54:08;22.77;;;12.93;;
68216;SDS011;55037;52.354;4.992;2022-11-13T00:56:54;23.67;;;13.30;;
68216;SDS011;55037;52.354;4.992;2022-11-13T00:59:40;21.60;;;12.73;;
68216;SDS011;55037;52.354;4.992;2022-11-13T01:02:26;18.70;;;11.50;;
68216;SDS011;55037;52.354;4.992;2022-11-13T01:05:11;20.45;;;11.65;;
68216;SDS011;55037;52.354;4.992;2022-11-13T01:07:57;18.95;;;11.95;;
68216;SDS011;55037;52.354;4.992;2022-11-13T01:10:44;17.63;;;11.55;;
68216;SDS011;55037;52.354;4.992;2022-11-13T01:13:41;22.35;;;11.60;;
68216;SDS011;55037;52.354;4.992;2022-11-13T01:16:27;19.15;;;11.27;;
68216;SDS011;55037;52.354;4.992;2022-11-13T01:19:13;19.17;;;11.60;;
68216;SDS011;55037;52.354;4.992;2022-11-13T01:21:59;20.20;;;11.10;;
68216;SDS011;55037;52.354;4.992;2022-11-13T01:24:45;19.65;;;11.20;;
68216;SDS011;55037;52.354;4.992;2022-11-13T01:27:31;18.17;;;10.57;;
68216;SDS011;55037;52.354;4.992;2022-11-13T01:30:19;17.58;;;9.80;;
68216;SDS011;55037;52.354;4.992;2022-11-13T01:33:05;21.27;;;10.70;;
68216;SDS011;55037;52.354;4.992;2022-11-13T01:35:51;17.08;;;10.50;;
68216;SDS011;55037;52.354;4.992;2022-11-13T01:38:37;18.60;;;10.75;;
68216;SDS011;55037;52.354;4.992;2022-11-13T01:44:15;19.13;;;10.95;;
68216;SDS011;55037;52.354;4.992;2022-11-13T01:47:02;18.83;;;10.88;;
68216;SDS011;55037;52.354;4.992;2022-11-13T01:49:53;16.73;;;11.00;;
68216;SDS011;55037;52.354;4.992;2022-11-13T01:52:42;17.40;;;11.38;;
68216;SDS011;55037;52.354;4.992;2022-11-13T01:55:28;20.23;;;11.40;;
68216;SDS011;55037;52.354;4.992;2022-11-13T01:58:14;19.13;;;11.45;;
68216;SDS011;55037;52.354;4.992;2022-11-13T02:01:00;21.08;;;11.50;;
68216;SDS011;55037;52.354;4.992;2022-11-13T02:03:47;19.90;;;11.07;;
68216;SDS011;55037;52.354;4.992;2022-11-13T02:06:55;18.77;;;10.93;;
68216;SDS011;55037;52.354;4.992;2022-11-13T02:09:42;21.33;;;10.70;;
68216;SDS011;55037;52.354;4.992;2022-11-13T02:12:31;18.35;;;10.55;;
68216;SDS011;55037;52.354;4.992;2022-11-13T02:15:20;18.15;;;10.73;;
68216;SDS011;55037;52.354;4.992;2022-11-13T02:18:09;17.67;;;10.52;;
68216;SDS011;55037;52.354;4.992;2022-11-13T02:21:00;17.42;;;10.73;;
68216;SDS011;55037;52.354;4.992;2022-11-13T02:24:30;17.45;;;10.93;;
68216;SDS011;55037;52.354;4.992;2022-11-13T02:27:25;20.92;;;11.70;;
68216;SDS011;55037;52.354;4.992;2022-11-13T02:30:21;19.80;;;11.65;;
68216;SDS011;55037;52.354;4.992;2022-11-13T02:33:20;18.63;;;11.00;;
68216;SDS011;55037;52.354;4.992;2022-11-13T02:36:08;26.70;;;11.85;;
68216;SDS011;55037;52.354;4.992;2022-11-13T02:38:56;19.63;;;11.27;;
68216;SDS011;55037;52.354;4.992;2022-11-13T02:41:45;19.33;;;10.83;;
68216;SDS011;55037;52.354;4.992;2022-11-13T02:44:31;17.88;;;10.88;;
68216;SDS011;55037;52.354;4.992;2022-11-13T02:47:17;21.60;;;11.45;;
68216;SDS011;55037;52.354;4.992;2022-11-13T02:50:03;21.27;;;11.17;;
68216;SDS011;55037;52.354;4.992;2022-11-13T02:52:50;20.27;;;11.98;;
68216;SDS011;55037;52.354;4.992;2022-11-13T02:55:35;20.48;;;11.45;;
68216;SDS011;55037;52.354;4.992;2022-11-13T02:58:22;19.63;;;11.73;;
68216;SDS011;55037;52.354;4.992;2022-11-13T03:01:07;18.25;;;11.10;;
68216;SDS011;55037;52.354;4.992;2022-11-13T03:03:53;19.70;;;11.38;;
68216;SDS011;55037;52.354;4.992;2022-11-13T03:06:42;21.40;;;11.60;;
68216;SDS011;55037;52.354;4.992;2022-11-13T03:09:28;19.73;;;11.10;;
68216;SDS011;55037;52.354;4.992;2022-11-13T03:12:14;19.95;;;11.50;;
68216;SDS011;55037;52.354;4.992;2022-11-13T03:15:00;19.53;;;11.33;;
68216;SDS011;55037;52.354;4.992;2022-11-13T03:17:46;19.60;;;11.30;;
68216;SDS011;55037;52.354;4.992;2022-11-13T03:20:32;18.10;;;11.27;;
68216;SDS011;55037;52.354;4.992;2022-11-13T03:23:20;20.30;;;11.90;;
68216;SDS011;55037;52.354;4.992;2022-11-13T03:26:07;19.58;;;11.48;;
68216;SDS011;55037;52.354;4.992;2022-11-13T03:28:54;20.47;;;12.10;;
68216;SDS011;55037;52.354;4.992;2022-11-13T03:31:40;18.33;;;11.52;;
68216;SDS011;55037;52.354;4.992;2022-11-13T03:34:26;19.38;;;11.98;;
68216;SDS011;55037;52.354;4.992;2022-11-13T03:37:12;21.83;;;13.05;;
68216;SDS011;55037;52.354;4.992;2022-11-13T03:39:58;24.27;;;12.43;;
68216;SDS011;55037;52.354;4.992;2022-11-13T03:42:44;20.27;;;12.52;;
68216;SDS011;55037;52.354;4.992;2022-11-13T03:45:29;21.58;;;13.32;;
68216;SDS011;55037;52.354;4.992;2022-11-13T03:48:15;21.42;;;13.30;;
68216;SDS011;55037;52.354;4.992;2022-11-13T03:51:01;24.23;;;14.90;;
68216;SDS011;55037;52.354;4.992;2022-11-13T03:53:47;22.17;;;14.70;;
68216;SDS011;55037;52.354;4.992;2022-11-13T03:56:33;23.60;;;14.98;;
68216;SDS011;55037;52.354;4.992;2022-11-13T03:59:19;23.60;;;15.10;;
68216;SDS011;55037;52.354;4.992;2022-11-13T04:02:05;23.42;;;14.45;;
68216;SDS011;55037;52.354;4.992;2022-11-13T04:04:51;22.67;;;14.80;;
68216;SDS011;55037;52.354;4.992;2022-11-13T04:07:37;21.65;;;13.77;;
68216;SDS011;55037;52.354;4.992;2022-11-13T04:10:22;21.55;;;13.07;;
68216;SDS011;55037;52.354;4.992;2022-11-13T04:13:09;20.33;;;13.05;;
68216;SDS011;55037;52.354;4.992;2022-11-13T04:15:55;20.23;;;12.93;;
68216;SDS011;55037;52.354;4.992;2022-11-13T04:18:40;17.52;;;11.80;;
68216;SDS011;55037;52.354;4.992;2022-11-13T04:21:26;18.05;;;11.98;;
68216;SDS011;55037;52.354;4.992;2022-11-13T04:24:12;17.77;;;11.57;;
68216;SDS011;55037;52.354;4.992;2022-11-13T04:26:58;19.83;;;11.60;;
68216;SDS011;55037;52.354;4.992;2022-11-13T04:29:44;18.08;;;11.00;;
68216;SDS011;55037;52.354;4.992;2022-11-13T04:32:30;19.20;;;11.13;;
68216;SDS011;55037;52.354;4.992;2022-11-13T04:35:16;15.88;;;10.35;;
68216;SDS011;55037;52.354;4.992;2022-11-13T04:38:02;16.67;;;10.30;;
68216;SDS011;55037;52.354;4.992;2022-11-13T04:40:49;16.05;;;10.40;;
68216;SDS011;55037;52.354;4.992;2022-11-13T04:43:58;15.43;;;10.27;;
68216;SDS011;55037;52.354;4.992;2022-11-13T04:46:44;19.73;;;10.17;;
68216;SDS011;55037;52.354;4.992;2022-11-13T04:49:29;14.80;;;9.60;;
68216;SDS011;55037;52.354;4.992;2022-11-13T04:52:15;16.70;;;9.90;;
68216;SDS011;55037;52.354;4.992;2022-11-13T04:55:01;15.10;;;9.70;;
68216;SDS011;55037;52.354;4.992;2022-11-13T04:57:47;15.48;;;9.90;;
68216;SDS011;55037;52.354;4.992;2022-11-13T05:00:35;14.82;;;10.02;;
68216;SDS011;55037;52.354;4.992;2022-11-13T05:03:21;14.95;;;9.60;;
68216;SDS011;55037;52.354;4.992;2022-11-13T05:06:07;14.32;;;9.65;;
68216;SDS011;55037;52.354;4.992;2022-11-13T05:08:54;15.73;;;9.40;;
68216;SDS011;55037;52.354;4.992;2022-11-13T05:11:40;14.50;;;9.43;;
68216;SDS011;55037;52.354;4.992;2022-11-13T05:14:26;13.18;;;8.80;;
68216;SDS011;55037;52.354;4.992;2022-11-13T05:17:12;14.75;;;9.00;;
68216;SDS011;55037;52.354;4.992;2022-11-13T05:19:58;11.15;;;7.65;;
68216;SDS011;55037;52.354;4.992;2022-11-13T05:22:44;12.00;;;7.60;;
68216;SDS011;55037;52.354;4.992;2022-11-13T05:25:30;12.97;;;7.73;;
68216;SDS011;55037;52.354;4.992;2022-11-13T05:28:16;13.68;;;7.82;;
68216;SDS011;55037;52.354;4.992;2022-11-13T05:31:06;10.93;;;7.72;;
68216;SDS011;55037;52.354;4.992;2022-11-13T05:33:52;12.03;;;7.90;;
68216;SDS011;55037;52.354;4.992;2022-11-13T05:36:38;13.52;;;8.95;;
68216;SDS011;55037;52.354;4.992;2022-11-13T05:39:24;13.45;;;8.45;;
68216;SDS011;55037;52.354;4.992;2022-11-13T05:42:10;13.48;;;9.32;;
68216;SDS011;55037;52.354;4.992;2022-11-13T05:44:56;15.07;;;9.88;;
68216;SDS011;55037;52.354;4.992;2022-11-13T05:47:42;15.93;;;10.25;;
68216;SDS011;55037;52.354;4.992;2022-11-13T05:50:27;15.90;;;9.80;;
68216;SDS011;55037;52.354;4.992;2022-11-13T05:53:13;16.45;;;10.63;;
68216;SDS011;55037;52.354;4.992;2022-11-13T05:56:00;15.90;;;9.90;;
68216;SDS011;55037;52.354;4.992;2022-11-13T05:58:47;14.63;;;10.23;;
68216;SDS011;55037;52.354;4.992;2022-11-13T06:01:37;17.10;;;10.20;;
68216;SDS011;55037;52.354;4.992;2022-11-13T06:04:24;16.52;;;10.65;;
68216;SDS011;55037;52.354;4.992;2022-11-13T06:07:10;15.23;;;10.57;;
68216;SDS011;55037;52.354;4.992;2022-11-13T06:09:55;15.18;;;10.30;;
68216;SDS011;55037;52.354;4.992;2022-11-13T06:12:41;16.38;;;10.45;;
68216;SDS011;55037;52.354;4.992;2022-11-13T06:15:27;17.23;;;11.33;;
68216;SDS011;55037;52.354;4.992;2022-11-13T06:18:13;15.75;;;11.18;;
68216;SDS011;55037;52.354;4.992;2022-11-13T06:21:03;16.88;;;10.90;;
68216;SDS011;55037;52.354;4.992;2022-11-13T06:23:51;14.73;;;10.52;;
68216;SDS011;55037;52.354;4.992;2022-11-13T06:26:37;15.75;;;10.43;;
68216;SDS011;55037;52.354;4.992;2022-11-13T06:29:23;15.50;;;10.02;;
68216;SDS011;55037;52.354;4.992;2022-11-13T06:32:09;14.38;;;9.55;;
68216;SDS011;55037;52.354;4.992;2022-11-13T06:34:54;14.65;;;9.90;;
68216;SDS011;55037;52.354;4.992;2022-11-13T06:37:40;16.38;;;9.63;;
68216;SDS011;55037;52.354;4.992;2022-11-13T06:40:26;13.85;;;9.05;;
68216;SDS011;55037;52.354;4.992;2022-11-13T06:43:12;15.25;;;9.50;;
68216;SDS011;55037;52.354;4.992;2022-11-13T06:46:13;14.20;;;9.83;;
68216;SDS011;55037;52.354;4.992;2022-11-13T06:49:00;14.60;;;9.40;;
68216;SDS011;55037;52.354;4.992;2022-11-13T06:51:46;14.38;;;9.70;;
68216;SDS011;55037;52.354;4.992;2022-11-13T06:54:32;14.63;;;9.23;;
68216;SDS011;55037;52.354;4.992;2022-11-13T06:57:18;13.85;;;9.23;;
68216;SDS011;55037;52.354;4.992;2022-11-13T07:00:04;13.43;;;9.48;;
68216;SDS011;55037;52.354;4.992;2022-11-13T07:02:50;13.15;;;8.95;;
68216;SDS011;55037;52.354;4.992;2022-11-13T07:05:36;15.27;;;9.47;;
68216;SDS011;55037;52.354;4.992;2022-11-13T07:08:22;14.85;;;9.55;;
68216;SDS011;55037;52.354;4.992;2022-11-13T07:11:09;15.02;;;9.40;;
68216;SDS011;55037;52.354;4.992;2022-11-13T07:13:58;14.32;;;9.27;;
68216;SDS011;55037;52.354;4.992;2022-11-13T07:16:44;14.57;;;9.40;;
68216;SDS011;55037;52.354;4.992;2022-11-13T07:19:49;14.95;;;9.30;;
68216;SDS011;55037;52.354;4.992;2022-11-13T07:22:35;14.60;;;8.70;;
68216;SDS011;55037;52.354;4.992;2022-11-13T07:25:21;13.02;;;8.82;;
68216;SDS011;55037;52.354;4.992;2022-11-13T07:28:07;15.18;;;8.98;;
68216;SDS011;55037;52.354;4.992;2022-11-13T07:30:56;13.45;;;8.50;;
68216;SDS011;55037;52.354;4.992;2022-11-13T07:33:46;12.85;;;8.93;;
68216;SDS011;55037;52.354;4.992;2022-11-13T07:36:32;14.38;;;8.85;;
68216;SDS011;55037;52.354;4.992;2022-11-13T07:39:18;13.80;;;8.80;;
68216;SDS011;55037;52.354;4.992;2022-11-13T07:42:04;13.77;;;8.93;;
68216;SDS011;55037;52.354;4.992;2022-11-13T07:44:50;14.32;;;9.25;;
68216;SDS011;55037;52.354;4.992;2022-11-13T07:47:39;13.57;;;9.40;;
68216;SDS011;55037;52.354;4.992;2022-11-13T07:50:26;14.23;;;9.53;;
68216;SDS011;55037;52.354;4.992;2022-11-13T07:53:13;13.63;;;9.17;;
68216;SDS011;55037;52.354;4.992;2022-11-13T07:55:59;14.23;;;10.30;;
68216;SDS011;55037;52.354;4.992;2022-11-13T07:58:46;13.82;;;9.90;;
68216;SDS011;55037;52.354;4.992;2022-11-13T08:01:32;15.05;;;10.23;;
68216;SDS011;55037;52.354;4.992;2022-11-13T08:04:17;16.40;;;10.25;;
68216;SDS011;55037;52.354;4.992;2022-11-13T08:07:03;14.10;;;9.90;;
68216;SDS011;55037;52.354;4.992;2022-11-13T08:09:49;15.75;;;10.05;;
68216;SDS011;55037;52.354;4.992;2022-11-13T08:12:35;17.88;;;10.02;;
68216;SDS011;55037;52.354;4.992;2022-11-13T08:15:21;14.00;;;9.53;;
68216;SDS011;55037;52.354;4.992;2022-11-13T08:18:07;13.00;;;9.20;;
68216;SDS011;55037;52.354;4.992;2022-11-13T08:20:54;12.87;;;9.13;;
68216;SDS011;55037;52.354;4.992;2022-11-13T08:23:40;14.27;;;9.27;;
68216;SDS011;55037;52.354;4.992;2022-11-13T08:26:27;12.50;;;9.02;;
68216;SDS011;55037;52.354;4.992;2022-11-13T08:29:12;13.35;;;9.38;;
68216;SDS011;55037;52.354;4.992;2022-11-13T08:31:58;11.47;;;8.90;;
68216;SDS011;55037;52.354;4.992;2022-11-13T08:34:44;12.43;;;9.70;;
68216;SDS011;55037;52.354;4.992;2022-11-13T08:37:31;12.02;;;9.38;;
68216;SDS011;55037;52.354;4.992;2022-11-13T08:40:17;13.93;;;9.18;;
68216;SDS011;55037;52.354;4.992;2022-11-13T08:43:03;11.23;;;9.37;;
68216;SDS011;55037;52.354;4.992;2022-11-13T08:45:49;12.13;;;9.30;;
68216;SDS011;55037;52.354;4.992;2022-11-13T08:48:35;12.10;;;9.48;;
68216;SDS011;55037;52.354;4.992;2022-11-13T08:51:21;10.95;;;8.93;;
68216;SDS011;55037;52.354;4.992;2022-11-13T08:54:07;13.20;;;9.05;;
68216;SDS011;55037;52.354;4.992;2022-11-13T08:56:53;12.20;;;8.90;;
68216;SDS011;55037;52.354;4.992;2022-11-13T08:59:43;11.27;;;9.00;;
68216;SDS011;55037;52.354;4.992;2022-11-13T09:02:29;11.95;;;8.63;;
68216;SDS011;55037;52.354;4.992;2022-11-13T09:05:15;11.33;;;8.40;;
68216;SDS011;55037;52.354;4.992;2022-11-13T09:08:01;10.77;;;8.70;;
68216;SDS011;55037;52.354;4.992;2022-11-13T09:10:47;10.32;;;8.57;;
68216;SDS011;55037;52.354;4.992;2022-11-13T09:13:33;11.52;;;8.73;;
68216;SDS011;55037;52.354;4.992;2022-11-13T09:16:27;12.05;;;8.50;;
68216;SDS011;55037;52.354;4.992;2022-11-13T09:19:13;11.00;;;8.20;;
68216;SDS011;55037;52.354;4.992;2022-11-13T09:21:59;10.07;;;8.05;;
68216;SDS011;55037;52.354;4.992;2022-11-13T09:24:44;9.25;;;7.78;;
68216;SDS011;55037;52.354;4.992;2022-11-13T09:27:30;11.05;;;8.20;;
68216;SDS011;55037;52.354;4.992;2022-11-13T09:30:16;10.35;;;7.30;;
68216;SDS011;55037;52.354;4.992;2022-11-13T09:33:02;11.15;;;7.68;;
68216;SDS011;55037;52.354;4.992;2022-11-13T09:35:49;10.45;;;7.75;;
68216;SDS011;55037;52.354;4.992;2022-11-13T09:38:35;10.80;;;7.55;;
68216;SDS011;55037;52.354;4.992;2022-11-13T09:41:25;10.52;;;7.43;;
68216;SDS011;55037;52.354;4.992;2022-11-13T09:44:18;9.32;;;7.35;;
68216;SDS011;55037;52.354;4.992;2022-11-13T09:47:16;10.00;;;7.13;;
68216;SDS011;55037;52.354;4.992;2022-11-13T09:53:13;8.93;;;6.82;;
68216;SDS011;55037;52.354;4.992;2022-11-13T09:56:06;9.20;;;6.50;;
68216;SDS011;55037;52.354;4.992;2022-11-13T10:02:14;9.43;;;6.57;;
68216;SDS011;55037;52.354;4.992;2022-11-13T10:08:12;8.40;;;6.35;;
68216;SDS011;55037;52.354;4.992;2022-11-13T10:11:24;8.38;;;6.32;;
68216;SDS011;55037;52.354;4.992;2022-11-13T10:14:18;7.07;;;5.95;;
68216;SDS011;55037;52.354;4.992;2022-11-13T10:17:10;7.55;;;6.15;;
68216;SDS011;55037;52.354;4.992;2022-11-13T10:20:10;8.48;;;5.90;;
68216;SDS011;55037;52.354;4.992;2022-11-13T10:23:13;8.23;;;5.90;;
68216;SDS011;55037;52.354;4.992;2022-11-13T10:26:37;8.63;;;5.80;;
68216;SDS011;55037;52.354;4.992;2022-11-13T10:29:17;6.63;;;5.50;;
68216;SDS011;55037;52.354;4.992;2022-11-13T10:32:15;7.40;;;6.10;;
68216;SDS011;55037;52.354;4.992;2022-11-13T10:41:02;8.30;;;5.90;;
68216;SDS011;55037;52.354;4.992;2022-11-13T10:43:51;7.18;;;5.90;;
68216;SDS011;55037;52.354;4.992;2022-11-13T10:46:38;7.93;;;6.22;;
68216;SDS011;55037;52.354;4.992;2022-11-13T10:49:25;8.18;;;6.28;;
68216;SDS011;55037;52.354;4.992;2022-11-13T10:58:20;7.82;;;6.00;;
68216;SDS011;55037;52.354;4.992;2022-11-13T11:01:12;8.27;;;5.90;;
68216;SDS011;55037;52.354;4.992;2022-11-13T11:04:12;8.07;;;5.80;;
68216;SDS011;55037;52.354;4.992;2022-11-13T11:07:38;7.28;;;5.80;;
68216;SDS011;55037;52.354;4.992;2022-11-13T11:10:33;9.18;;;6.05;;
68216;SDS011;55037;52.354;4.992;2022-11-13T11:13:43;8.25;;;5.97;;
68216;SDS011;55037;52.354;4.992;2022-11-13T11:16:29;8.18;;;6.10;;
68216;SDS011;55037;52.354;4.992;2022-11-13T11:19:15;7.27;;;5.40;;
68216;SDS011;55037;52.354;4.992;2022-11-13T11:22:10;8.50;;;6.97;;
68216;SDS011;55037;52.354;4.992;2022-11-13T11:26:03;9.65;;;8.15;;
68216;SDS011;55037;52.354;4.992;2022-11-13T11:34:19;9.50;;;7.87;;
68216;SDS011;55037;52.354;4.992;2022-11-13T11:37:30;9.27;;;7.40;;
68216;SDS011;55037;52.354;4.992;2022-11-13T11:40:29;9.23;;;7.82;;
68216;SDS011;55037;52.354;4.992;2022-11-13T11:46:22;10.05;;;7.43;;
68216;SDS011;55037;52.354;4.992;2022-11-13T11:49:08;9.60;;;7.63;;
68216;SDS011;55037;52.354;4.992;2022-11-13T11:52:02;9.27;;;6.90;;
68216;SDS011;55037;52.354;4.992;2022-11-13T11:55:25;9.48;;;7.40;;
68216;SDS011;55037;52.354;4.992;2022-11-13T11:58:24;9.57;;;7.68;;
68216;SDS011;55037;52.354;4.992;2022-11-13T12:10:59;9.18;;;8.05;;
68216;SDS011;55037;52.354;4.992;2022-11-13T12:20:23;8.85;;;7.90;;
68216;SDS011;55037;52.354;4.992;2022-11-13T12:23:22;8.88;;;7.50;;
68216;SDS011;55037;52.354;4.992;2022-11-13T12:29:03;8.93;;;7.90;;
68216;SDS011;55037;52.354;4.992;2022-11-13T12:32:28;9.30;;;7.73;;
68216;SDS011;55037;52.354;4.992;2022-11-13T12:35:39;9.15;;;7.18;;
68216;SDS011;55037;52.354;4.992;2022-11-13T12:47:05;8.57;;;6.93;;
68216;SDS011;55037;52.354;4.992;2022-11-13T12:50:00;9.50;;;6.80;;
68216;SDS011;55037;52.354;4.992;2022-11-13T12:53:00;8.45;;;7.22;;
68216;SDS011;55037;52.354;4.992;2022-11-13T12:55:53;9.38;;;7.00;;
68216;SDS011;55037;52.354;4.992;2022-11-13T12:58:52;9.30;;;7.07;;
68216;SDS011;55037;52.354;4.992;2022-11-13T13:11:12;9.75;;;7.22;;
68216;SDS011;55037;52.354;4.992;2022-11-13T13:14:15;10.20;;;8.80;;
68216;SDS011;55037;52.354;4.992;2022-11-13T13:19:59;10.23;;;8.80;;
68216;SDS011;55037;52.354;4.992;2022-11-13T13:22:54;10.05;;;8.32;;
68216;SDS011;55037;52.354;4.992;2022-11-13T13:25:42;9.63;;;8.10;;
68216;SDS011;55037;52.354;4.992;2022-11-13T13:28:29;10.68;;;8.35;;
68216;SDS011;55037;52.354;4.992;2022-11-13T13:37:29;9.52;;;7.20;;
68216;SDS011;55037;52.354;4.992;2022-11-13T13:40:28;9.50;;;7.07;;
68216;SDS011;55037;52.354;4.992;2022-11-13T13:43:27;9.13;;;7.18;;
68216;SDS011;55037;52.354;4.992;2022-11-13T13:46:16;9.32;;;7.07;;
68216;SDS011;55037;52.354;4.992;2022-11-13T13:49:07;9.00;;;7.20;;
68216;SDS011;55037;52.354;4.992;2022-11-13T13:52:01;11.35;;;6.97;;
68216;SDS011;55037;52.354;4.992;2022-11-13T13:54:47;12.05;;;7.60;;
68216;SDS011;55037;52.354;4.992;2022-11-13T13:57:33;9.45;;;6.88;;
68216;SDS011;55037;52.354;4.992;2022-11-13T14:00:25;8.75;;;6.95;;
68216;SDS011;55037;52.354;4.992;2022-11-13T14:03:15;9.50;;;6.97;;
68216;SDS011;55037;52.354;4.992;2022-11-13T14:06:08;10.55;;;6.57;;
68216;SDS011;55037;52.354;4.992;2022-11-13T14:09:07;9.17;;;6.30;;
68216;SDS011;55037;52.354;4.992;2022-11-13T14:11:56;8.50;;;6.40;;
68216;SDS011;55037;52.354;4.992;2022-11-13T14:14:43;9.55;;;6.40;;
68216;SDS011;55037;52.354;4.992;2022-11-13T14:17:29;7.77;;;6.37;;
68216;SDS011;55037;52.354;4.992;2022-11-13T14:20:16;8.80;;;6.23;;
68216;SDS011;55037;52.354;4.992;2022-11-13T14:23:02;8.40;;;6.57;;
68216;SDS011;55037;52.354;4.992;2022-11-13T14:25:49;8.43;;;6.47;;
68216;SDS011;55037;52.354;4.992;2022-11-13T14:28:51;9.30;;;6.57;;
68216;SDS011;55037;52.354;4.992;2022-11-13T14:31:44;9.85;;;7.07;;
68216;SDS011;55037;52.354;4.992;2022-11-13T14:34:30;9.50;;;7.40;;
68216;SDS011;55037;52.354;4.992;2022-11-13T14:37:24;9.10;;;7.22;;
68216;SDS011;55037;52.354;4.992;2022-11-13T14:40:24;10.18;;;7.20;;
68216;SDS011;55037;52.354;4.992;2022-11-13T14:43:17;9.50;;;7.38;;
68216;SDS011;55037;52.354;4.992;2022-11-13T14:46:26;10.10;;;7.60;;
68216;SDS011;55037;52.354;4.992;2022-11-13T14:49:31;10.25;;;7.03;;
68216;SDS011;55037;52.354;4.992;2022-11-13T14:52:23;8.85;;;6.90;;
68216;SDS011;55037;52.354;4.992;2022-11-13T14:55:30;10.07;;;6.80;;
68216;SDS011;55037;52.354;4.992;2022-11-13T14:58:37;10.03;;;6.80;;
68216;SDS011;55037;52.354;4.992;2022-11-13T15:01:31;7.80;;;6.23;;
68216;SDS011;55037;52.354;4.992;2022-11-13T15:04:17;8.90;;;6.40;;
68216;SDS011;55037;52.354;4.992;2022-11-13T15:07:17;9.83;;;6.90;;
68216;SDS011;55037;52.354;4.992;2022-11-13T15:10:17;9.18;;;6.97;;
68216;SDS011;55037;52.354;4.992;2022-11-13T15:13:11;9.02;;;6.50;;
68216;SDS011;55037;52.354;4.992;2022-11-13T15:15:58;9.50;;;6.80;;
68216;SDS011;55037;52.354;4.992;2022-11-13T15:21:41;8.35;;;6.45;;
68216;SDS011;55037;52.354;4.992;2022-11-13T15:24:48;9.88;;;6.90;;
68216;SDS011;55037;52.354;4.992;2022-11-13T15:27:34;10.47;;;6.67;;
68216;SDS011;55037;52.354;4.992;2022-11-13T15:30:27;7.70;;;6.20;;
68216;SDS011;55037;52.354;4.992;2022-11-13T15:33:13;9.07;;;6.72;;
68216;SDS011;55037;52.354;4.992;2022-11-13T15:36:00;8.30;;;6.60;;
68216;SDS011;55037;52.354;4.992;2022-11-13T15:38:46;12.07;;;6.80;;
68216;SDS011;55037;52.354;4.992;2022-11-13T15:41:31;8.60;;;6.68;;
68216;SDS011;55037;52.354;4.992;2022-11-13T15:44:18;9.55;;;6.78;;
68216;SDS011;55037;52.354;4.992;2022-11-13T15:47:11;9.37;;;6.90;;
68216;SDS011;55037;52.354;4.992;2022-11-13T15:50:06;10.10;;;6.18;;
68216;SDS011;55037;52.354;4.992;2022-11-13T15:53:00;7.88;;;6.32;;
68216;SDS011;55037;52.354;4.992;2022-11-13T15:55:49;7.57;;;5.90;;
68216;SDS011;55037;52.354;4.992;2022-11-13T15:58:35;9.90;;;6.40;;
68216;SDS011;55037;52.354;4.992;2022-11-13T16:01:21;8.98;;;6.47;;
68216;SDS011;55037;52.354;4.992;2022-11-13T16:04:08;8.55;;;6.13;;
68216;SDS011;55037;52.354;4.992;2022-11-13T16:06:56;8.60;;;6.55;;
68216;SDS011;55037;52.354;4.992;2022-11-13T16:09:42;9.18;;;6.53;;
68216;SDS011;55037;52.354;4.992;2022-11-13T16:12:29;10.27;;;6.88;;
68216;SDS011;55037;52.354;4.992;2022-11-13T16:15:15;8.82;;;6.90;;
68216;SDS011;55037;52.354;4.992;2022-11-13T16:18:01;9.43;;;7.47;;
68216;SDS011;55037;52.354;4.992;2022-11-13T16:20:47;10.23;;;7.80;;
68216;SDS011;55037;52.354;4.992;2022-11-13T16:23:34;11.35;;;7.93;;
68216;SDS011;55037;52.354;4.992;2022-11-13T16:26:20;10.23;;;8.27;;
68216;SDS011;55037;52.354;4.992;2022-11-13T16:29:14;10.55;;;8.20;;
68216;SDS011;55037;52.354;4.992;2022-11-13T16:32:03;11.25;;;8.50;;
68216;SDS011;55037;52.354;4.992;2022-11-13T16:34:49;20.37;;;15.17;;
68216;SDS011;55037;52.354;4.992;2022-11-13T16:37:35;11.45;;;9.20;;
68216;SDS011;55037;52.354;4.992;2022-11-13T16:40:22;11.43;;;8.95;;
68216;SDS011;55037;52.354;4.992;2022-11-13T16:43:12;13.02;;;9.48;;
68216;SDS011;55037;52.354;4.992;2022-11-13T16:45:58;12.38;;;9.38;;
68216;SDS011;55037;52.354;4.992;2022-11-13T16:48:48;13.13;;;10.10;;
68216;SDS011;55037;52.354;4.992;2022-11-13T16:51:33;12.90;;;10.10;;
68216;SDS011;55037;52.354;4.992;2022-11-13T16:54:19;13.97;;;10.60;;
68216;SDS011;55037;52.354;4.992;2022-11-13T16:57:07;12.95;;;10.20;;
68216;SDS011;55037;52.354;4.992;2022-11-13T16:59:57;14.40;;;10.70;;
68216;SDS011;55037;52.354;4.992;2022-11-13T17:02:43;14.60;;;10.55;;
68216;SDS011;55037;52.354;4.992;2022-11-13T17:05:29;15.15;;;10.20;;
68216;SDS011;55037;52.354;4.992;2022-11-13T17:08:15;13.43;;;10.47;;
68216;SDS011;55037;52.354;4.992;2022-11-13T17:11:01;14.65;;;10.98;;
68216;SDS011;55037;52.354;4.992;2022-11-13T17:13:47;13.50;;;10.60;;
68216;SDS011;55037;52.354;4.992;2022-11-13T17:16:41;13.23;;;10.25;;
68216;SDS011;55037;52.354;4.992;2022-11-13T17:19:26;13.55;;;10.32;;
68216;SDS011;55037;52.354;4.992;2022-11-13T17:22:12;15.73;;;10.90;;
68216;SDS011;55037;52.354;4.992;2022-11-13T17:24:58;14.50;;;10.85;;
68216;SDS011;55037;52.354;4.992;2022-11-13T17:27:44;13.75;;;10.43;;
68216;SDS011;55037;52.354;4.992;2022-11-13T17:30:30;14.02;;;11.15;;
68216;SDS011;55037;52.354;4.992;2022-11-13T17:33:16;16.00;;;11.18;;
68216;SDS011;55037;52.354;4.992;2022-11-13T17:36:03;14.93;;;11.07;;
68216;SDS011;55037;52.354;4.992;2022-11-13T17:38:49;14.73;;;11.53;;
68216;SDS011;55037;52.354;4.992;2022-11-13T17:41:35;13.77;;;11.02;;
68216;SDS011;55037;52.354;4.992;2022-11-13T17:44:21;16.30;;;11.18;;
68216;SDS011;55037;52.354;4.992;2022-11-13T17:47:07;15.70;;;11.25;;
68216;SDS011;55037;52.354;4.992;2022-11-13T17:49:53;14.85;;;11.27;;
68216;SDS011;55037;52.354;4.992;2022-11-13T17:52:40;14.13;;;11.47;;
68216;SDS011;55037;52.354;4.992;2022-11-13T17:55:26;15.55;;;11.30;;
68216;SDS011;55037;52.354;4.992;2022-11-13T17:58:12;15.95;;;12.07;;
68216;SDS011;55037;52.354;4.992;2022-11-13T18:01:04;16.15;;;11.82;;
68216;SDS011;55037;52.354;4.992;2022-11-13T18:03:55;15.63;;;12.23;;
68216;SDS011;55037;52.354;4.992;2022-11-13T18:06:41;14.98;;;11.80;;